createdAt,value
2022-09-17T00:01:24.645Z,98258.47
2022-09-17T00:03:53.903Z,98239.25
2022-09-17T00:06:22.050Z,98240.84
2022-09-17T00:08:49.654Z,98256.66
2022-09-17T00:11:23.871Z,98250.59
2022-09-17T00:13:52.430Z,98249.69
2022-09-17T00:16:27.302Z,98259.25
2022-09-17T00:18:55.351Z,98261.03
2022-09-17T00:21:23.334Z,98258.47
2022-09-17T00:23:54.415Z,98255.81
2022-09-17T00:26:21.384Z,98266.16
2022-09-17T00:28:54.383Z,98264.38
2022-09-17T00:31:22.371Z,98272.00
2022-09-17T00:33:49.721Z,98267.66
2022-09-17T00:36:18.213Z,98266.78
2022-09-17T00:38:45.364Z,98263.34
2022-09-17T00:41:12.864Z,98263.38
2022-09-17T00:43:43.264Z,98260.91
2022-09-17T00:46:36.070Z,98263.38
2022-09-17T00:49:07.681Z,98273.63
2022-09-17T00:51:40.566Z,98273.63
2022-09-17T00:54:10.676Z,98274.41
2022-09-17T00:56:40.431Z,98271.78
2022-09-17T00:59:08.629Z,98283.97
2022-09-17T01:01:36.091Z,98282.22
2022-09-17T01:04:03.857Z,98288.22
2022-09-17T01:06:39.493Z,98293.38
2022-09-17T01:09:14.094Z,98297.66
2022-09-17T01:11:59.592Z,98296.81
2022-09-17T01:15:05.443Z,98280.28
2022-09-17T01:17:50.828Z,98272.53
2022-09-17T01:20:39.724Z,98269.91
2022-09-17T01:23:37.781Z,98274.28
2022-09-17T01:26:42.554Z,98280.47
2022-09-17T01:29:46.894Z,98278.84
2022-09-17T01:32:37.243Z,98281.38
2022-09-17T01:35:10.421Z,98281.50
2022-09-17T01:38:00.209Z,98278.97
2022-09-17T01:40:46.106Z,98276.41
2022-09-17T01:43:27.960Z,98275.69
2022-09-17T01:46:02.159Z,98261.81
2022-09-17T01:48:36.363Z,98266.22
2022-09-17T01:51:10.381Z,98264.53
2022-09-17T01:53:45.438Z,98267.22
2022-09-17T01:56:15.383Z,98262.00
2022-09-17T01:58:46.164Z,98267.31
2022-09-17T02:01:16.726Z,98271.75
2022-09-17T02:04:36.373Z,98269.94
2022-09-17T02:07:08.283Z,98254.19
2022-09-17T02:09:41.935Z,98279.16
2022-09-17T02:12:13.175Z,98290.66
2022-09-17T02:14:44.973Z,98287.38
2022-09-17T02:17:16.895Z,98294.22
2022-09-17T02:19:44.336Z,98284.88
2022-09-17T02:22:21.972Z,98299.00
2022-09-17T02:25:10.657Z,98293.91
2022-09-17T02:28:03.339Z,98289.66
2022-09-17T02:30:30.880Z,98285.34
2022-09-17T02:32:57.920Z,98281.06
2022-09-17T02:35:25.184Z,98281.09
2022-09-17T02:37:53.303Z,98281.78
2022-09-17T02:40:22.152Z,98291.41
2022-09-17T02:42:51.975Z,98295.78
2022-09-17T02:45:37.986Z,98301.75
2022-09-17T02:48:26.643Z,98293.00
2022-09-17T02:51:02.559Z,98293.00
2022-09-17T02:53:38.404Z,98283.44
2022-09-17T02:56:27.915Z,98295.59
2022-09-17T02:59:13.266Z,98279.06
2022-09-17T03:01:44.574Z,98272.22
2022-09-17T03:04:15.922Z,98273.97
2022-09-17T03:06:46.973Z,98262.66
2022-09-17T03:09:15.273Z,98266.22
2022-09-17T03:11:42.493Z,98263.69
2022-09-17T03:14:09.537Z,98263.75
2022-09-17T03:16:36.513Z,98255.19
2022-09-17T03:19:03.722Z,98269.16
2022-09-17T03:21:31.341Z,98268.47
2022-09-17T03:24:00.503Z,98262.47
2022-09-17T03:26:27.784Z,98261.88
2022-09-17T03:28:55.854Z,98271.66
2022-09-17T03:31:22.824Z,98262.34
2022-09-17T03:33:50.349Z,98269.41
2022-09-17T03:36:17.326Z,98271.31
2022-09-17T03:38:44.225Z,98272.31
2022-09-17T03:41:11.520Z,98271.59
2022-09-17T03:43:39.910Z,98279.56
2022-09-17T03:46:07.006Z,98280.66
2022-09-17T03:48:37.267Z,98282.56
2022-09-17T03:51:04.587Z,98280.28
2022-09-17T03:53:32.425Z,98285.63
2022-09-17T03:56:00.926Z,98285.69
2022-09-17T03:58:29.265Z,98286.69
2022-09-17T04:00:57.966Z,98285.06
2022-09-17T04:03:26.023Z,98288.50
2022-09-17T04:05:53.281Z,98283.31
2022-09-17T04:08:20.641Z,98279.75
2022-09-17T04:10:48.019Z,98285.63
2022-09-17T04:13:16.315Z,98277.91
2022-09-17T04:15:43.635Z,98287.38
2022-09-17T04:18:10.703Z,98285.63
2022-09-17T04:20:37.858Z,98287.28
2022-09-17T04:23:07.440Z,98293.22
2022-09-17T04:25:34.397Z,98284.53
2022-09-17T04:28:01.446Z,98288.75
2022-09-17T04:30:28.779Z,98290.38
2022-09-17T04:32:55.731Z,98289.34
2022-09-17T04:35:22.718Z,98285.78
2022-09-17T04:37:56.378Z,98291.00
2022-09-17T04:40:24.751Z,98280.47
2022-09-17T04:42:56.004Z,98286.47
2022-09-17T04:45:23.991Z,98283.78
2022-09-17T04:47:51.171Z,98291.38
2022-09-17T04:50:19.062Z,98302.94
2022-09-17T04:52:46.466Z,98299.16
2022-09-17T04:55:13.879Z,98296.97
2022-09-17T04:57:46.788Z,98298.63
2022-09-17T05:00:14.515Z,98301.25
2022-09-17T05:02:43.545Z,98303.09
2022-09-17T05:05:10.776Z,98305.28
2022-09-17T05:07:41.048Z,98309.06
2022-09-17T05:10:09.086Z,98307.50
2022-09-17T05:12:36.086Z,98309.25
2022-09-17T05:15:04.415Z,98304.94
2022-09-17T05:17:31.762Z,98306.56
2022-09-17T05:19:58.910Z,98304.81
2022-09-17T05:22:26.154Z,98315.19
2022-09-17T05:24:53.252Z,98314.94
2022-09-17T05:27:20.173Z,98313.94
2022-09-17T05:29:47.438Z,98317.06
2022-09-17T05:32:14.429Z,98323.84
2022-09-17T05:34:41.607Z,98325.41
2022-09-17T05:37:11.823Z,98327.13
2022-09-17T05:39:38.777Z,98327.03
2022-09-17T05:42:06.044Z,98334.69
2022-09-17T05:44:32.984Z,98329.22
2022-09-17T05:47:00.301Z,98332.47
2022-09-17T05:49:27.499Z,98335.59
2022-09-17T05:51:54.432Z,98331.88
2022-09-17T05:54:21.946Z,98345.66
2022-09-17T05:56:48.935Z,98340.50
2022-09-17T05:59:15.964Z,98343.97
2022-09-17T06:01:43.011Z,98340.59
2022-09-17T06:04:10.174Z,98341.53
2022-09-17T06:06:39.136Z,98338.00
2022-09-17T06:09:07.036Z,98351.06
2022-09-17T06:11:34.115Z,98356.28
2022-09-17T06:14:01.280Z,98360.00
2022-09-17T06:16:28.332Z,98356.53
2022-09-17T06:18:55.659Z,98353.81
2022-09-17T06:21:23.292Z,98346.84
2022-09-17T06:23:50.892Z,98361.69
2022-09-17T06:26:18.293Z,98362.41
2022-09-17T06:28:45.811Z,98359.81
2022-09-17T06:31:13.868Z,98370.13
2022-09-17T06:33:41.064Z,98371.94
2022-09-17T06:36:14.009Z,98363.06
2022-09-17T06:38:42.353Z,98374.81
2022-09-17T06:41:09.332Z,98373.94
2022-09-17T06:43:36.394Z,98380.00
2022-09-17T06:46:09.493Z,98373.47
2022-09-17T06:48:37.657Z,98374.34
2022-09-17T06:51:07.478Z,98375.00
2022-09-17T06:53:36.872Z,98375.84
2022-09-17T06:56:06.618Z,98368.28
2022-09-17T06:58:37.353Z,98378.31
2022-09-17T07:01:05.478Z,98373.47
2022-09-17T07:03:33.108Z,98368.66
2022-09-17T07:06:00.302Z,98367.13
2022-09-17T07:08:27.299Z,98373.47
2022-09-17T07:10:58.320Z,98379.00
2022-09-17T07:13:25.791Z,98376.06
2022-09-17T07:15:58.135Z,98376.81
2022-09-17T07:18:25.781Z,98386.84
2022-09-17T07:21:01.139Z,98392.34
2022-09-17T07:23:33.154Z,98385.28
2022-09-17T07:26:12.680Z,98392.00
2022-09-17T07:28:40.290Z,98406.81
2022-09-17T07:31:12.442Z,98402.59
2022-09-17T07:33:42.650Z,98405.63
2022-09-17T07:36:14.320Z,98409.31
2022-09-17T07:38:41.453Z,98404.34
2022-09-17T07:41:16.408Z,98411.28
2022-09-17T07:43:44.265Z,98405.34
2022-09-17T07:46:16.557Z,98407.81
2022-09-17T07:48:43.767Z,98404.88
2022-09-17T07:51:37.254Z,98411.50
2022-09-17T07:54:04.388Z,98416.75
2022-09-17T07:56:31.513Z,98415.91
2022-09-17T07:58:58.600Z,98416.13
2022-09-17T08:01:27.283Z,98420.03
2022-09-17T08:03:55.057Z,98416.66
2022-09-17T08:06:26.103Z,98424.66
2022-09-17T08:08:53.156Z,98419.97
2022-09-17T08:14:14.675Z,98429.13
2022-09-17T08:16:42.008Z,98428.19
2022-09-17T08:19:10.994Z,98423.97
2022-09-17T08:21:38.371Z,98425.56
2022-09-17T08:24:05.557Z,98424.03
2022-09-17T08:26:32.815Z,98427.97
2022-09-17T08:29:00.221Z,98433.59
2022-09-17T08:31:30.130Z,98435.88
2022-09-17T08:33:57.678Z,98432.31
2022-09-17T08:36:26.343Z,98436.47
2022-09-17T08:38:54.653Z,98439.22
2022-09-17T08:41:40.272Z,98437.44
2022-09-17T08:44:47.225Z,98446.75
2022-09-17T08:47:19.370Z,98438.53
2022-09-17T08:49:54.073Z,98444.88
2022-09-17T08:52:39.675Z,98441.91
2022-09-17T08:55:21.465Z,98453.69
2022-09-17T08:58:06.874Z,98445.59
2022-09-17T09:00:42.825Z,98449.28
2022-09-17T09:03:28.378Z,98445.72
2022-09-17T09:05:58.529Z,98452.94
2022-09-17T09:08:44.182Z,98448.44
2022-09-17T09:11:14.842Z,98448.44
2022-09-17T09:13:46.079Z,98447.13
2022-09-17T09:16:19.993Z,98449.16
2022-09-17T09:18:52.792Z,98455.09
2022-09-17T09:21:29.103Z,98455.66
2022-09-17T09:24:15.291Z,98455.56
2022-09-17T09:26:46.558Z,98440.88
2022-09-17T09:29:44.665Z,98451.34
2022-09-17T09:32:17.704Z,98442.69
2022-09-17T09:34:45.921Z,98433.47
2022-09-17T09:37:24.464Z,98435.59
2022-09-17T09:39:53.983Z,98428.66
2022-09-17T09:42:39.796Z,98440.59
2022-09-17T09:45:15.466Z,98436.44
2022-09-17T09:48:04.179Z,98435.34
2022-09-17T09:51:04.676Z,98437.41
2022-09-17T09:53:45.759Z,98432.59
2022-09-17T09:56:34.497Z,98429.97
2022-09-17T09:59:01.569Z,98433.09
2022-09-17T10:01:40.514Z,98431.22
2022-09-17T10:04:27.649Z,98434.72
2022-09-17T10:07:09.051Z,98433.19
2022-09-17T10:09:38.316Z,98437.41
2022-09-17T10:12:11.395Z,98437.09
2022-09-17T10:14:43.349Z,98438.00
2022-09-17T10:17:23.906Z,98428.25
2022-09-17T10:20:07.727Z,98431.84
2022-09-17T10:22:36.737Z,98423.59
2022-09-17T10:25:06.482Z,98422.00
2022-09-17T10:27:34.645Z,98432.84
2022-09-17T10:30:17.160Z,98433.44
2022-09-17T10:32:44.276Z,98437.63
2022-09-17T10:35:18.366Z,98435.72
2022-09-17T10:37:46.405Z,98448.50
2022-09-17T10:40:19.632Z,98438.41
2022-09-17T10:42:50.883Z,98449.56
2022-09-17T10:45:31.780Z,98453.75
2022-09-17T10:47:59.915Z,98467.41
2022-09-17T10:50:31.880Z,98479.09
2022-09-17T10:53:01.813Z,98486.38
2022-09-17T10:55:57.934Z,98507.22
2022-09-17T10:58:33.046Z,98506.38
2022-09-17T11:01:22.773Z,98501.72
2022-09-17T11:04:07.944Z,98506.00
2022-09-17T11:07:12.514Z,98506.50
2022-09-17T11:09:48.403Z,98510.81
2022-09-17T11:12:37.265Z,98500.91
2022-09-17T11:15:48.586Z,98511.81
2022-09-17T11:18:40.107Z,98503.91
2022-09-17T11:21:09.902Z,98503.19
2022-09-17T11:23:57.411Z,98506.78
2022-09-17T11:26:38.951Z,98502.19
2022-09-17T11:29:18.085Z,98500.56
2022-09-17T11:31:58.364Z,98494.25
2022-09-17T11:34:37.945Z,98484.75
2022-09-17T11:37:12.545Z,98486.25
2022-09-17T11:39:49.194Z,98486.03
2022-09-17T11:42:22.996Z,98472.16
2022-09-17T11:45:18.990Z,98481.31
2022-09-17T11:47:58.781Z,98478.94
2022-09-17T11:50:33.021Z,98483.81
2022-09-17T11:53:12.078Z,98469.53
2022-09-17T11:56:00.555Z,98486.56
2022-09-17T11:58:42.715Z,98479.94
2022-09-17T12:01:12.865Z,98485.09
2022-09-17T12:03:44.067Z,98480.94
2022-09-17T12:06:16.747Z,98492.34
2022-09-17T12:09:21.357Z,98493.75
2022-09-17T12:11:54.800Z,98499.75
2022-09-17T12:14:26.197Z,98490.69
2022-09-17T12:17:00.566Z,98487.91
2022-09-17T12:19:37.788Z,98487.72
2022-09-17T12:22:09.492Z,98486.44
2022-09-17T12:24:36.919Z,98486.91
2022-09-17T12:27:29.203Z,98491.97
2022-09-17T12:30:16.462Z,98486.69
2022-09-17T12:33:25.205Z,98495.41
2022-09-17T12:36:10.499Z,98484.59
2022-09-17T12:39:16.069Z,98482.13
2022-09-17T12:41:59.872Z,98477.50
2022-09-17T12:44:39.735Z,98476.22
2022-09-17T12:47:37.322Z,98480.81
2022-09-17T12:50:20.696Z,98485.50
2022-09-17T12:52:54.109Z,98472.97
2022-09-17T12:55:39.600Z,98478.84
2022-09-17T12:58:22.883Z,98493.81
2022-09-17T13:00:54.394Z,98484.09
2022-09-17T13:03:45.761Z,98485.69
2022-09-17T13:06:31.127Z,98487.31
2022-09-17T13:09:28.909Z,98478.06
2022-09-17T13:11:55.959Z,98485.38
2022-09-17T13:14:43.306Z,98478.22
2022-09-17T13:17:20.360Z,98479.66
2022-09-17T13:20:04.728Z,98477.47
2022-09-17T13:22:34.535Z,98487.66
2022-09-17T13:25:08.316Z,98485.28
2022-09-17T13:27:38.838Z,98498.34
2022-09-17T13:30:11.173Z,98498.94
2022-09-17T13:32:39.882Z,98505.69
2022-09-17T13:35:06.976Z,98497.66
2022-09-17T13:37:35.825Z,98502.66
2022-09-17T13:40:04.417Z,98503.81
2022-09-17T13:42:53.176Z,98501.88
2022-09-17T13:45:23.432Z,98505.78
2022-09-17T13:48:08.416Z,98497.75
2022-09-17T13:50:40.301Z,98500.78
2022-09-17T13:53:17.014Z,98500.13
2022-09-17T13:55:51.807Z,98497.66
2022-09-17T13:58:19.007Z,98498.25
2022-09-17T14:00:56.464Z,98505.19
2022-09-17T14:03:37.747Z,98504.16
2022-09-17T14:06:08.810Z,98505.50
2022-09-17T14:08:50.044Z,98518.84
2022-09-17T14:11:23.019Z,98522.66
2022-09-17T14:14:06.268Z,98514.50
2022-09-17T14:16:51.842Z,98506.16
2022-09-17T14:19:46.685Z,98508.59
2022-09-17T14:22:25.762Z,98509.22
2022-09-17T14:24:54.512Z,98514.03
2022-09-17T14:27:51.956Z,98532.28
2022-09-17T14:30:24.059Z,98517.97
2022-09-17T14:33:19.518Z,98531.56
2022-09-17T14:35:48.696Z,98535.34
2022-09-17T14:38:25.399Z,98547.88
2022-09-17T14:41:05.325Z,98538.78
2022-09-17T14:43:50.699Z,98539.06
2022-09-17T14:46:23.776Z,98543.41
2022-09-17T14:48:51.048Z,98540.03
2022-09-17T14:51:18.282Z,98541.56
2022-09-17T14:53:50.400Z,98541.19
2022-09-17T14:56:21.817Z,98551.88
2022-09-17T14:58:53.234Z,98537.88
2022-09-17T15:01:28.516Z,98536.16
2022-09-17T15:04:30.725Z,98536.78
2022-09-17T15:07:12.677Z,98535.63
2022-09-17T15:09:39.499Z,98536.19
2022-09-17T15:12:07.735Z,98538.75
2022-09-17T15:14:38.281Z,98536.03
2022-09-17T15:17:05.787Z,98526.09
2022-09-17T15:19:41.717Z,98527.53
2022-09-17T15:22:24.416Z,98530.63
2022-09-17T15:25:11.562Z,98526.00
2022-09-17T15:27:45.996Z,98524.13
2022-09-17T15:30:21.334Z,98525.22
2022-09-17T15:32:56.839Z,98523.00
2022-09-17T15:35:30.623Z,98525.19
2022-09-17T15:38:21.646Z,98531.66
2022-09-17T15:40:47.940Z,98530.38
2022-09-17T15:43:26.966Z,98530.78
2022-09-17T15:45:54.580Z,98526.63
2022-09-17T15:48:38.674Z,98529.53
2022-09-17T15:51:13.160Z,98533.22
2022-09-17T15:53:52.127Z,98543.19
2022-09-17T15:56:23.336Z,98540.94
2022-09-17T15:58:52.814Z,98543.88
2022-09-17T16:01:39.301Z,98546.22
2022-09-17T16:04:19.200Z,98537.81
2022-09-17T16:06:57.043Z,98542.72
2022-09-17T16:09:50.103Z,98544.84
2022-09-17T16:12:26.181Z,98550.44
2022-09-17T16:14:55.421Z,98540.25
2022-09-17T16:17:28.110Z,98541.22
2022-09-17T16:19:56.479Z,98547.41
2022-09-17T16:22:23.797Z,98544.94
2022-09-17T16:24:50.812Z,98549.53
2022-09-17T16:27:24.460Z,98550.66
2022-09-17T16:29:53.001Z,98552.72
2022-09-17T16:32:20.041Z,98551.16
2022-09-17T16:34:47.145Z,98555.06
2022-09-17T16:37:14.116Z,98564.16
2022-09-17T16:39:41.100Z,98566.00
2022-09-17T16:42:08.433Z,98556.66
2022-09-17T16:44:35.575Z,98563.00
2022-09-17T16:47:02.628Z,98562.28
2022-09-17T16:49:29.624Z,98570.28
2022-09-17T16:51:56.578Z,98571.13
2022-09-17T16:54:23.793Z,98571.13
2022-09-17T16:56:51.655Z,98567.78
2022-09-17T16:59:18.727Z,98567.66
2022-09-17T17:01:45.703Z,98573.56
2022-09-17T17:04:12.917Z,98574.66
2022-09-17T17:06:40.033Z,98576.63
2022-09-17T17:09:07.153Z,98571.59
2022-09-17T17:11:34.398Z,98582.16
2022-09-17T17:14:05.378Z,98581.50
2022-09-17T17:16:32.644Z,98579.97
2022-09-17T17:18:59.681Z,98590.47
2022-09-17T17:21:26.759Z,98589.34
2022-09-17T17:23:53.759Z,98586.47
2022-09-17T17:26:20.918Z,98588.31
2022-09-17T17:28:48.892Z,98583.66
2022-09-17T17:31:16.126Z,98583.41
2022-09-17T17:33:43.184Z,98594.84
2022-09-17T17:36:10.781Z,98591.97
2022-09-17T17:38:38.158Z,98588.00
2022-09-17T17:41:07.377Z,98597.91
2022-09-17T17:43:34.718Z,98587.59
2022-09-17T17:46:02.290Z,98591.06
2022-09-17T17:48:30.185Z,98599.41
2022-09-17T17:51:02.970Z,98598.63
2022-09-17T17:53:30.406Z,98592.81
2022-09-17T17:56:02.239Z,98596.16
2022-09-17T17:58:29.441Z,98591.97
2022-09-17T18:00:56.596Z,98597.28
2022-09-17T18:03:26.717Z,98603.16
2022-09-17T18:05:57.897Z,98596.03
2022-09-17T18:08:25.044Z,98601.06
2022-09-17T18:10:57.070Z,98597.81
2022-09-17T18:13:24.577Z,98601.31
2022-09-17T18:15:53.246Z,98595.94
2022-09-17T18:18:21.138Z,98597.38
2022-09-17T18:20:48.685Z,98597.91
2022-09-17T18:23:15.922Z,98598.38
2022-09-17T18:25:43.182Z,98607.50
2022-09-17T18:28:10.389Z,98607.00
2022-09-17T18:30:38.073Z,98609.06
2022-09-17T18:33:05.138Z,98624.25
2022-09-17T18:35:36.487Z,98615.13
2022-09-17T18:38:06.893Z,98619.72
2022-09-17T18:40:34.142Z,98630.34
2022-09-17T18:43:01.262Z,98624.53
2022-09-17T18:45:28.495Z,98625.66
2022-09-17T18:47:55.722Z,98634.53
2022-09-17T18:50:23.075Z,98639.06
2022-09-17T18:52:50.080Z,98632.25
2022-09-17T18:55:17.165Z,98632.34
2022-09-17T18:57:44.120Z,98627.84
2022-09-17T19:00:11.700Z,98627.63
2022-09-17T19:02:39.138Z,98614.56
2022-09-17T19:05:06.779Z,98620.63
2022-09-17T19:07:33.872Z,98622.28
2022-09-17T19:10:01.254Z,98618.81
2022-09-17T19:12:30.212Z,98616.16
2022-09-17T19:14:57.236Z,98622.22
2022-09-17T19:17:24.402Z,98623.06
2022-09-17T19:19:51.620Z,98622.22
2022-09-17T19:22:18.693Z,98627.34
2022-09-17T19:24:45.962Z,98629.94
2022-09-17T19:27:13.611Z,98625.63
2022-09-17T19:29:40.953Z,98626.56
2022-09-17T19:32:08.153Z,98624.09
2022-09-17T19:34:35.159Z,98629.44
2022-09-17T19:37:02.440Z,98639.06
2022-09-17T19:39:29.535Z,98627.00
2022-09-17T19:41:57.413Z,98636.72
2022-09-17T19:44:25.222Z,98629.88
2022-09-17T19:46:53.522Z,98630.03
2022-09-17T19:49:21.123Z,98636.28
2022-09-17T19:51:48.295Z,98628.59
2022-09-17T19:54:15.278Z,98632.97
2022-09-17T19:56:42.453Z,98632.09
2022-09-17T19:59:09.595Z,98633.81
2022-09-17T20:01:36.989Z,98624.94
2022-09-17T20:04:04.435Z,98614.28
2022-09-17T20:06:34.210Z,98618.41
2022-09-17T20:09:03.684Z,98626.00
2022-09-17T20:11:31.016Z,98614.66
2022-09-17T20:14:07.957Z,98615.59
2022-09-17T20:16:36.550Z,98608.75
2022-09-17T20:19:04.987Z,98606.25
2022-09-17T20:21:33.441Z,98608.16
2022-09-17T20:24:02.282Z,98609.97
2022-09-17T20:26:32.286Z,98607.47
2022-09-17T20:28:59.958Z,98608.53
2022-09-17T20:31:29.835Z,98607.81
2022-09-17T20:33:58.863Z,98614.00
2022-09-17T20:36:31.055Z,98611.47
2022-09-17T20:39:21.050Z,98606.28
2022-09-17T20:41:45.775Z,98612.38
2022-09-17T20:44:12.992Z,98610.78
2022-09-17T20:46:40.227Z,98609.13
2022-09-17T20:49:07.407Z,98612.72
2022-09-17T20:51:34.936Z,98611.13
2022-09-17T20:54:02.055Z,98611.28
2022-09-17T20:56:31.803Z,98608.81
2022-09-17T20:59:07.935Z,98613.19
2022-09-17T21:01:37.937Z,98611.50
2022-09-17T21:04:08.647Z,98611.69
2022-09-17T21:06:38.322Z,98601.44
2022-09-17T21:09:11.346Z,98612.81
2022-09-17T21:11:39.179Z,98623.34
2022-09-17T21:14:06.367Z,98627.69
2022-09-17T21:16:33.510Z,98630.38
2022-09-17T21:19:03.155Z,98632.19
2022-09-17T21:21:31.054Z,98631.34
2022-09-17T21:24:02.753Z,98622.81
2022-09-17T21:26:30.033Z,98623.66
2022-09-17T21:28:57.753Z,98614.28
2022-09-17T21:31:33.186Z,98616.97
2022-09-17T21:34:02.658Z,98613.56
2022-09-17T21:36:31.562Z,98609.28
2022-09-17T21:39:04.263Z,98605.00
2022-09-17T21:41:31.700Z,98615.38
2022-09-17T21:43:58.815Z,98606.81
2022-09-17T21:46:32.194Z,98618.06
2022-09-17T21:49:02.238Z,98615.41
2022-09-17T21:51:40.468Z,98618.91
2022-09-17T21:54:09.766Z,98618.91
2022-09-17T21:56:37.166Z,98621.56
2022-09-17T21:59:06.856Z,98623.25
2022-09-17T22:01:40.409Z,98620.66
2022-09-17T22:04:13.360Z,98618.84
2022-09-17T22:06:41.387Z,98617.88
2022-09-17T22:09:24.368Z,98616.03
2022-09-17T22:11:52.535Z,98609.88
2022-09-17T22:14:21.836Z,98611.63
2022-09-17T22:16:53.806Z,98608.09
2022-09-17T22:19:21.040Z,98605.19
2022-09-17T22:21:51.496Z,98613.00
2022-09-17T22:24:20.585Z,98610.53
2022-09-17T22:26:55.799Z,98610.59
2022-09-17T22:29:24.828Z,98608.81
2022-09-17T22:31:51.996Z,98605.41
2022-09-17T22:34:21.563Z,98611.44
2022-09-17T22:36:49.456Z,98613.13
2022-09-17T22:39:19.127Z,98614.75
2022-09-17T22:41:46.321Z,98624.97
2022-09-17T22:44:18.522Z,98613.50
2022-09-17T22:46:47.999Z,98618.41
2022-09-17T22:49:16.039Z,98611.22
2022-09-17T22:51:44.256Z,98616.19
2022-09-17T22:54:12.760Z,98612.44
2022-09-17T22:56:40.041Z,98614.78
2022-09-17T22:59:07.542Z,98618.13
2022-09-17T23:01:36.613Z,98611.03
2022-09-17T23:04:05.339Z,98612.69
2022-09-17T23:06:35.346Z,98612.56
2022-09-17T23:09:03.012Z,98610.66
2022-09-17T23:11:32.145Z,98610.53
2022-09-17T23:14:02.492Z,98601.72
2022-09-17T23:16:34.777Z,98605.03
2022-09-17T23:19:01.803Z,98596.22
2022-09-17T23:21:29.197Z,98601.38
2022-09-17T23:23:56.177Z,98597.81
2022-09-17T23:26:25.760Z,98597.78
2022-09-17T23:28:53.486Z,98602.03
2022-09-17T23:31:23.625Z,98593.31
2022-09-17T23:33:51.411Z,98595.06
2022-09-17T23:36:30.413Z,98593.31
2022-09-17T23:38:59.033Z,98594.09
2022-09-17T23:41:31.920Z,98588.88
2022-09-17T23:44:01.113Z,98588.13
2022-09-17T23:46:30.112Z,98594.31
2022-09-17T23:48:57.555Z,98600.38
2022-09-17T23:51:26.678Z,98601.22
2022-09-17T23:53:57.397Z,98601.16
2022-09-17T23:56:25.755Z,98596.66
2022-09-17T23:58:54.284Z,98608.72
